Hauptseite
METAR-TAF:

METAR-TAF

Flughäfen :

Flughafen Kiel

Kiel, Deutschland

Breite: 54-23N, Länge: 010-10E, Höhe: 31 m

Beobachtung

Neuester Wetterbericht von vor 11 Stunden und 19 Minuten, um 17:50 UTC
Wind 13 kt aus Ost
Temperatur 16°C
Luftfeuchtigkeit 55%
Luftdruck 1025 hPa
Sichtweite 10 km oder mehr
keine Wolken unter 1500 m und keine Kumulonimbus oder Gewitterwolken

METAR: EDHK 201750Z 08013KT CAVOK 16/07 Q1025

Zeit: 07:09 (05:09 UTC)

Prognose

Neuester Wetterbericht von vor 15 Stunden und 9 Minuten, um 14:00 UTC
Gültige Prognose vom 20 um 15 UTC bis 20 um 18 UTC
Wind 11 kt aus Ost/Nordost
Sichtweite 10 km oder mehr
keine Wolken unter 1500 m und keine Kumulonimbus oder Gewitterwolken
Übergehend zu
vom 20 um 17 UTC bis 20 um 18 UTC
Wind 6 kt aus Ost/Nordost

TAF: EDHK 201400Z 2015/2018 07011KT CAVOK BECMG 2017/2018 07006KT

Wetterbeobachtungen und Prognosen von mehr als 4000 Flughäfen (METAR und TAF Bericht).

Die verfügbaren Stationen werden durch gelbe und rote Markierungen auf der Karte dargestellt.

Führen Sie die Maus auf sie, um den Namen der Station zu sehen.

Darauf klicken, um die Beobachtung von Wetterbeobachtungen und Prognosen zu sehen.

Um die Karte zu ändern : klicken Sie auf den grünen Tasten mit einem schwarzen Kreuz Zum Vergrößern, auf den grünen Button mit einem Gedankenstrich zu verkleinern, oder auf die grünen Pfeile für benachbarte Karten.


METAR-TAF: